Silverdale, PA (18962)

10:17 AM EST on January 30, 2015 (GMT -0500)
Hilltown Township Secondary | Change Station
CLOSE
Current Station
Personal Weather Station
Location: Perkasie, PA
Elevation: 656 ft
Nearby Weather Stations
Active Advisory: Wind Advisory

Elev 656 ft 40.33 °N, 75.26 °W | Updated 4 seconds ago

Overcast
Overcast
32.0 °F
Feels Like 27 °F
N
4.9
Wind Variable Wind from West
Gusts 12.0 mph

Today
High -- | Low -- °F
--% Chance of Precip.
Yesterday
High -- | Low -- °F
Precip. -- in
7:12 AM 5:16 PM
Waxing Gibbous, 83% visible
Pressure 29.90 in
Visibility 10.0 miles
Clouds Mostly Cloudy 2000 ft
Overcast 3700 ft
Windchill 27 °F
Dew Point 27 °F
Humidity 81%
Rainfall 0.00 in
Snow Depth Not available.
UV 1.3 out of 12
Pollen .10 out of 12
Air Quality Not available.
Flu Activity Not available.
SPECI KDYL 301509Z AUTO 32011G20KT 10SM BKN020 OVC037 01/M03 A2990 RMK AO2 T00061028

More Conditions Fewer Conditions

Pressure 29.90 in
Visibility 10.0 miles
Clouds Mostly Cloudy 2000 ft
Overcast 3700 ft
Windchill 27 °F
Dew Point 27 °F
Humidity 81%
Rainfall 0.00 in
Snow Depth Not available.
UV 1.3 out of 12
Pollen .10 out of 12
Air Quality Not available.
Flu Activity Not available.
SPECI KDYL 301509Z AUTO 32011G20KT 10SM BKN020 OVC037 01/M03 A2990 RMK AO2 T00061028

More Conditions Fewer Conditions

Nowcast | as of 9:31 am EST on January 30, 2015

A burst of snow will continue to shift quickly eastward this morning out of northeastern Pennsylvania and across northwestern New Jersey. The visibilities will be reduced to near one half of a mile for a time, and a quick coating will result. While driving, use caution as untreated surfaces will be slippery especially the bridges and overpasses.

×

10-Day Weather Forecast

Almanac

Astronomy

Jan. 30, 2015 Rise Set
Actual Time
Civil Twilight
Nautical Twilight
Astronomical Twilight
Moon
Length of Visible Light
Length of Day
Tomorrow will be .
, % of the Moon is Illuminated

Today's Extremes

State Highs State Lows

Community

WunderPhotos

Upload Photos

1,791,784 photos uploaded!

WunderBlogs® & News

Nearby

Air Quality

  Air Quality AQ Index Pollutant
Not available.

Snow Depth

Station Depth Elevation

Earthquake Activity

City Distance Mag. Time & Date
Minimum magnitude displayed is 2.5.

Coastal Water Temperatures

Place Temperature

Nearby Weather Stations